sensor_id;sensor_type;location;lat;lon;timestamp;temperature;humidity
19522;DHT22;9905;52.126;5.596;2024-01-16T00:02:17;1.00;99.90
19522;DHT22;9905;52.126;5.596;2024-01-16T00:04:45;1.00;99.90
19522;DHT22;9905;52.126;5.596;2024-01-16T00:07:11;0.90;99.90
19522;DHT22;9905;52.126;5.596;2024-01-16T00:09:38;0.90;99.90
19522;DHT22;9905;52.126;5.596;2024-01-16T00:12:06;0.90;99.90
19522;DHT22;9905;52.126;5.596;2024-01-16T00:14:35;0.90;99.90
19522;DHT22;9905;52.126;5.596;2024-01-16T00:17:02;1.00;99.90
19522;DHT22;9905;52.126;5.596;2024-01-16T00:19:29;1.00;99.90
19522;DHT22;9905;52.126;5.596;2024-01-16T00:21:57;1.00;99.90
19522;DHT22;9905;52.126;5.596;2024-01-16T00:24:25;1.00;99.90
19522;DHT22;9905;52.126;5.596;2024-01-16T00:26:52;1.00;99.90
19522;DHT22;9905;52.126;5.596;2024-01-16T00:29:19;1.00;99.90
19522;DHT22;9905;52.126;5.596;2024-01-16T00:31:46;1.00;99.90
19522;DHT22;9905;52.126;5.596;2024-01-16T00:34:12;1.00;99.90
19522;DHT22;9905;52.126;5.596;2024-01-16T00:36:39;1.10;99.90
19522;DHT22;9905;52.126;5.596;2024-01-16T00:39:07;1.00;99.90
19522;DHT22;9905;52.126;5.596;2024-01-16T00:41:35;1.10;99.90
19522;DHT22;9905;52.126;5.596;2024-01-16T00:44:01;1.10;99.90
19522;DHT22;9905;52.126;5.596;2024-01-16T00:46:28;1.00;99.90
19522;DHT22;9905;52.126;5.596;2024-01-16T00:48:55;1.00;99.90
19522;DHT22;9905;52.126;5.596;2024-01-16T00:51:22;1.00;99.90
19522;DHT22;9905;52.126;5.596;2024-01-16T00:53:49;1.00;99.90
19522;DHT22;9905;52.126;5.596;2024-01-16T00:56:17;1.00;99.90
19522;DHT22;9905;52.126;5.596;2024-01-16T00:58:43;0.90;99.90
19522;DHT22;9905;52.126;5.596;2024-01-16T01:01:10;0.90;99.90
19522;DHT22;9905;52.126;5.596;2024-01-16T01:03:37;0.90;99.90
19522;DHT22;9905;52.126;5.596;2024-01-16T01:06:04;0.90;99.90
19522;DHT22;9905;52.126;5.596;2024-01-16T01:08:31;0.90;99.90
19522;DHT22;9905;52.126;5.596;2024-01-16T01:10:57;0.90;99.90
19522;DHT22;9905;52.126;5.596;2024-01-16T01:13:25;0.90;99.90
19522;DHT22;9905;52.126;5.596;2024-01-16T01:15:52;0.90;99.90
19522;DHT22;9905;52.126;5.596;2024-01-16T01:18:19;0.80;99.90
19522;DHT22;9905;52.126;5.596;2024-01-16T01:20:46;0.80;99.90
19522;DHT22;9905;52.126;5.596;2024-01-16T01:23:13;0.80;99.90
19522;DHT22;9905;52.126;5.596;2024-01-16T01:25:40;0.80;99.90
19522;DHT22;9905;52.126;5.596;2024-01-16T01:28:07;0.80;99.90
19522;DHT22;9905;52.126;5.596;2024-01-16T01:30:35;0.70;99.90
19522;DHT22;9905;52.126;5.596;2024-01-16T01:33:01;0.70;99.90
19522;DHT22;9905;52.126;5.596;2024-01-16T01:35:29;0.70;99.90
19522;DHT22;9905;52.126;5.596;2024-01-16T01:37:56;0.70;99.90
19522;DHT22;9905;52.126;5.596;2024-01-16T01:40:23;0.70;99.90
19522;DHT22;9905;52.126;5.596;2024-01-16T01:42:49;0.60;99.90
19522;DHT22;9905;52.126;5.596;2024-01-16T01:45:16;0.60;99.90
19522;DHT22;9905;52.126;5.596;2024-01-16T01:47:44;0.60;99.90
19522;DHT22;9905;52.126;5.596;2024-01-16T01:50:14;0.70;99.90
19522;DHT22;9905;52.126;5.596;2024-01-16T01:52:41;0.60;99.90
19522;DHT22;9905;52.126;5.596;2024-01-16T01:55:11;0.60;99.90
19522;DHT22;9905;52.126;5.596;2024-01-16T01:57:38;0.60;99.90
19522;DHT22;9905;52.126;5.596;2024-01-16T02:00:06;0.50;99.90
19522;DHT22;9905;52.126;5.596;2024-01-16T02:02:34;0.60;99.90
19522;DHT22;9905;52.126;5.596;2024-01-16T02:05:02;0.50;99.90
19522;DHT22;9905;52.126;5.596;2024-01-16T02:07:29;0.50;99.90
19522;DHT22;9905;52.126;5.596;2024-01-16T02:09:57;0.60;99.90
19522;DHT22;9905;52.126;5.596;2024-01-16T02:12:26;0.50;99.90
19522;DHT22;9905;52.126;5.596;2024-01-16T02:14:52;0.60;99.90
19522;DHT22;9905;52.126;5.596;2024-01-16T02:17:19;0.60;99.90
19522;DHT22;9905;52.126;5.596;2024-01-16T02:19:46;0.60;99.90
19522;DHT22;9905;52.126;5.596;2024-01-16T02:22:18;0.60;99.90
19522;DHT22;9905;52.126;5.596;2024-01-16T02:24:47;0.70;99.90
19522;DHT22;9905;52.126;5.596;2024-01-16T02:27:14;0.70;99.90
19522;DHT22;9905;52.126;5.596;2024-01-16T02:29:41;0.80;99.90
19522;DHT22;9905;52.126;5.596;2024-01-16T02:32:10;0.80;99.90
19522;DHT22;9905;52.126;5.596;2024-01-16T02:34:38;0.80;99.90
19522;DHT22;9905;52.126;5.596;2024-01-16T02:37:04;0.80;99.90
19522;DHT22;9905;52.126;5.596;2024-01-16T02:39:31;0.80;99.90
19522;DHT22;9905;52.126;5.596;2024-01-16T02:41:59;0.90;99.90
19522;DHT22;9905;52.126;5.596;2024-01-16T02:44:26;0.90;99.90
19522;DHT22;9905;52.126;5.596;2024-01-16T02:46:53;0.90;99.90
19522;DHT22;9905;52.126;5.596;2024-01-16T02:49:20;0.90;99.90
19522;DHT22;9905;52.126;5.596;2024-01-16T02:51:47;0.90;99.90
19522;DHT22;9905;52.126;5.596;2024-01-16T02:54:14;0.90;99.90
19522;DHT22;9905;52.126;5.596;2024-01-16T02:56:41;0.90;99.90
19522;DHT22;9905;52.126;5.596;2024-01-16T02:59:09;0.90;99.90
19522;DHT22;9905;52.126;5.596;2024-01-16T03:01:36;0.80;99.90
19522;DHT22;9905;52.126;5.596;2024-01-16T03:04:03;0.80;99.90
19522;DHT22;9905;52.126;5.596;2024-01-16T03:06:30;0.80;99.90
19522;DHT22;9905;52.126;5.596;2024-01-16T03:08:57;0.90;99.90
19522;DHT22;9905;52.126;5.596;2024-01-16T03:11:24;0.80;99.90
19522;DHT22;9905;52.126;5.596;2024-01-16T03:13:51;0.90;99.90
19522;DHT22;9905;52.126;5.596;2024-01-16T03:16:20;0.90;99.90
19522;DHT22;9905;52.126;5.596;2024-01-16T03:18:47;0.90;99.90
19522;DHT22;9905;52.126;5.596;2024-01-16T03:21:14;0.90;99.90
19522;DHT22;9905;52.126;5.596;2024-01-16T03:23:40;0.90;99.90
19522;DHT22;9905;52.126;5.596;2024-01-16T03:26:12;0.90;99.90
19522;DHT22;9905;52.126;5.596;2024-01-16T03:28:39;0.90;99.90
19522;DHT22;9905;52.126;5.596;2024-01-16T03:31:05;0.90;99.90
19522;DHT22;9905;52.126;5.596;2024-01-16T03:33:34;0.90;99.90
19522;DHT22;9905;52.126;5.596;2024-01-16T03:36:01;0.90;99.90
19522;DHT22;9905;52.126;5.596;2024-01-16T03:38:28;0.90;99.90
19522;DHT22;9905;52.126;5.596;2024-01-16T03:40:55;0.90;99.90
19522;DHT22;9905;52.126;5.596;2024-01-16T03:43:22;0.90;99.90
19522;DHT22;9905;52.126;5.596;2024-01-16T03:45:49;1.00;99.90
19522;DHT22;9905;52.126;5.596;2024-01-16T03:48:15;1.00;99.90
19522;DHT22;9905;52.126;5.596;2024-01-16T03:50:43;1.00;99.90
19522;DHT22;9905;52.126;5.596;2024-01-16T03:53:10;1.00;99.90
19522;DHT22;9905;52.126;5.596;2024-01-16T03:55:38;1.00;99.90
19522;DHT22;9905;52.126;5.596;2024-01-16T03:58:04;1.00;99.90
19522;DHT22;9905;52.126;5.596;2024-01-16T04:00:32;1.00;99.90
19522;DHT22;9905;52.126;5.596;2024-01-16T04:02:59;1.00;99.90
19522;DHT22;9905;52.126;5.596;2024-01-16T04:05:26;1.00;99.90
19522;DHT22;9905;52.126;5.596;2024-01-16T04:07:54;1.00;99.90
19522;DHT22;9905;52.126;5.596;2024-01-16T04:10:21;1.10;99.90
19522;DHT22;9905;52.126;5.596;2024-01-16T04:12:47;1.10;99.90
19522;DHT22;9905;52.126;5.596;2024-01-16T04:15:14;1.10;99.90
19522;DHT22;9905;52.126;5.596;2024-01-16T04:17:41;1.10;99.90
19522;DHT22;9905;52.126;5.596;2024-01-16T04:20:09;1.10;99.90
19522;DHT22;9905;52.126;5.596;2024-01-16T04:22:36;1.10;99.90
19522;DHT22;9905;52.126;5.596;2024-01-16T04:25:05;1.10;99.90
19522;DHT22;9905;52.126;5.596;2024-01-16T04:27:32;1.10;99.90
19522;DHT22;9905;52.126;5.596;2024-01-16T04:29:59;1.10;99.90
19522;DHT22;9905;52.126;5.596;2024-01-16T04:32:25;1.00;99.90
19522;DHT22;9905;52.126;5.596;2024-01-16T04:34:52;1.10;99.90
19522;DHT22;9905;52.126;5.596;2024-01-16T04:37:19;1.00;99.90
19522;DHT22;9905;52.126;5.596;2024-01-16T04:39:45;1.00;99.90
19522;DHT22;9905;52.126;5.596;2024-01-16T04:42:14;1.00;99.90
19522;DHT22;9905;52.126;5.596;2024-01-16T04:44:43;0.90;99.90
19522;DHT22;9905;52.126;5.596;2024-01-16T04:47:09;0.90;99.90
19522;DHT22;9905;52.126;5.596;2024-01-16T04:49:37;0.90;99.90
19522;DHT22;9905;52.126;5.596;2024-01-16T04:52:04;0.90;99.90
19522;DHT22;9905;52.126;5.596;2024-01-16T04:54:31;0.90;99.90
19522;DHT22;9905;52.126;5.596;2024-01-16T04:56:58;0.90;99.90
19522;DHT22;9905;52.126;5.596;2024-01-16T04:59:26;0.90;99.90
19522;DHT22;9905;52.126;5.596;2024-01-16T05:01:53;0.90;99.90
19522;DHT22;9905;52.126;5.596;2024-01-16T05:04:20;0.90;99.90
19522;DHT22;9905;52.126;5.596;2024-01-16T05:06:50;0.90;99.90
19522;DHT22;9905;52.126;5.596;2024-01-16T05:09:17;0.90;99.90
19522;DHT22;9905;52.126;5.596;2024-01-16T05:11:45;0.90;99.90
19522;DHT22;9905;52.126;5.596;2024-01-16T05:14:11;0.90;99.90
19522;DHT22;9905;52.126;5.596;2024-01-16T05:16:39;1.00;99.90
19522;DHT22;9905;52.126;5.596;2024-01-16T05:19:06;1.00;99.90
19522;DHT22;9905;52.126;5.596;2024-01-16T05:21:33;1.00;99.90
19522;DHT22;9905;52.126;5.596;2024-01-16T05:24:00;1.00;99.90
19522;DHT22;9905;52.126;5.596;2024-01-16T05:26:27;1.00;99.90
19522;DHT22;9905;52.126;5.596;2024-01-16T05:28:53;1.00;99.90
19522;DHT22;9905;52.126;5.596;2024-01-16T05:31:20;1.00;99.90
19522;DHT22;9905;52.126;5.596;2024-01-16T05:33:48;1.10;99.90
19522;DHT22;9905;52.126;5.596;2024-01-16T05:36:15;1.00;99.90
19522;DHT22;9905;52.126;5.596;2024-01-16T05:38:42;1.10;99.90
19522;DHT22;9905;52.126;5.596;2024-01-16T05:41:09;1.10;99.90
19522;DHT22;9905;52.126;5.596;2024-01-16T05:43:36;1.00;99.90
19522;DHT22;9905;52.126;5.596;2024-01-16T05:46:02;1.00;99.90
19522;DHT22;9905;52.126;5.596;2024-01-16T05:48:29;1.00;99.90
19522;DHT22;9905;52.126;5.596;2024-01-16T05:50:57;1.00;99.90
19522;DHT22;9905;52.126;5.596;2024-01-16T05:53:24;0.90;99.90
19522;DHT22;9905;52.126;5.596;2024-01-16T05:55:50;1.00;99.90
19522;DHT22;9905;52.126;5.596;2024-01-16T05:58:19;0.90;99.90
19522;DHT22;9905;52.126;5.596;2024-01-16T06:00:46;0.90;99.90
19522;DHT22;9905;52.126;5.596;2024-01-16T06:03:12;0.90;99.90
19522;DHT22;9905;52.126;5.596;2024-01-16T06:05:39;0.90;99.90
19522;DHT22;9905;52.126;5.596;2024-01-16T06:08:07;0.90;99.90
19522;DHT22;9905;52.126;5.596;2024-01-16T06:10:34;0.90;99.90
19522;DHT22;9905;52.126;5.596;2024-01-16T06:13:01;0.90;99.90
19522;DHT22;9905;52.126;5.596;2024-01-16T06:15:27;0.90;99.90
19522;DHT22;9905;52.126;5.596;2024-01-16T06:17:54;0.90;99.90
19522;DHT22;9905;52.126;5.596;2024-01-16T06:20:21;0.90;99.90
19522;DHT22;9905;52.126;5.596;2024-01-16T06:22:49;0.90;99.90
19522;DHT22;9905;52.126;5.596;2024-01-16T06:25:17;0.90;99.90
19522;DHT22;9905;52.126;5.596;2024-01-16T06:27:44;0.90;99.90
19522;DHT22;9905;52.126;5.596;2024-01-16T06:30:11;0.90;99.90
19522;DHT22;9905;52.126;5.596;2024-01-16T06:32:38;0.90;99.90
19522;DHT22;9905;52.126;5.596;2024-01-16T06:35:05;0.90;99.90
19522;DHT22;9905;52.126;5.596;2024-01-16T06:37:33;0.90;99.90
19522;DHT22;9905;52.126;5.596;2024-01-16T06:39:59;0.90;99.90
19522;DHT22;9905;52.126;5.596;2024-01-16T06:42:28;0.90;99.90
19522;DHT22;9905;52.126;5.596;2024-01-16T06:44:54;0.90;99.90
19522;DHT22;9905;52.126;5.596;2024-01-16T06:47:21;0.90;99.90
19522;DHT22;9905;52.126;5.596;2024-01-16T06:49:49;0.90;99.90
19522;DHT22;9905;52.126;5.596;2024-01-16T06:52:15;1.00;99.90
19522;DHT22;9905;52.126;5.596;2024-01-16T06:54:42;1.00;99.90
19522;DHT22;9905;52.126;5.596;2024-01-16T06:57:09;1.10;99.90
19522;DHT22;9905;52.126;5.596;2024-01-16T06:59:37;1.10;99.90
19522;DHT22;9905;52.126;5.596;2024-01-16T07:02:04;1.10;99.90
19522;DHT22;9905;52.126;5.596;2024-01-16T07:04:31;1.10;99.90
19522;DHT22;9905;52.126;5.596;2024-01-16T07:06:58;1.10;99.90
19522;DHT22;9905;52.126;5.596;2024-01-16T07:09:25;1.10;99.90
19522;DHT22;9905;52.126;5.596;2024-01-16T07:11:52;1.10;99.90
19522;DHT22;9905;52.126;5.596;2024-01-16T07:14:19;1.10;99.90
19522;DHT22;9905;52.126;5.596;2024-01-16T07:16:47;1.20;99.90
19522;DHT22;9905;52.126;5.596;2024-01-16T07:19:15;1.10;99.90
19522;DHT22;9905;52.126;5.596;2024-01-16T07:21:42;1.20;99.90
19522;DHT22;9905;52.126;5.596;2024-01-16T07:24:10;1.20;99.90
19522;DHT22;9905;52.126;5.596;2024-01-16T07:26:37;1.20;99.90
19522;DHT22;9905;52.126;5.596;2024-01-16T07:29:04;1.20;99.90
19522;DHT22;9905;52.126;5.596;2024-01-16T07:31:31;1.20;99.90
19522;DHT22;9905;52.126;5.596;2024-01-16T07:33:59;1.20;99.90
19522;DHT22;9905;52.126;5.596;2024-01-16T07:36:26;1.20;99.90
19522;DHT22;9905;52.126;5.596;2024-01-16T07:38:52;1.20;99.90
19522;DHT22;9905;52.126;5.596;2024-01-16T07:41:19;1.20;99.90
19522;DHT22;9905;52.126;5.596;2024-01-16T07:43:46;1.20;99.90
19522;DHT22;9905;52.126;5.596;2024-01-16T07:46:11;1.30;99.90
19522;DHT22;9905;52.126;5.596;2024-01-16T07:48:38;1.20;99.90
19522;DHT22;9905;52.126;5.596;2024-01-16T07:51:06;1.20;99.90
19522;DHT22;9905;52.126;5.596;2024-01-16T07:53:33;1.20;99.90
19522;DHT22;9905;52.126;5.596;2024-01-16T07:56:00;1.20;99.90
19522;DHT22;9905;52.126;5.596;2024-01-16T07:58:26;1.30;99.90
19522;DHT22;9905;52.126;5.596;2024-01-16T08:00:54;1.30;99.90
19522;DHT22;9905;52.126;5.596;2024-01-16T08:03:20;1.30;99.90
19522;DHT22;9905;52.126;5.596;2024-01-16T08:05:47;1.30;99.90
19522;DHT22;9905;52.126;5.596;2024-01-16T08:08:15;1.30;99.90
19522;DHT22;9905;52.126;5.596;2024-01-16T08:10:42;1.30;99.90
19522;DHT22;9905;52.126;5.596;2024-01-16T08:13:09;1.30;99.90
19522;DHT22;9905;52.126;5.596;2024-01-16T08:15:36;1.30;99.90
19522;DHT22;9905;52.126;5.596;2024-01-16T08:18:03;1.30;99.90
19522;DHT22;9905;52.126;5.596;2024-01-16T08:20:30;1.30;99.90
19522;DHT22;9905;52.126;5.596;2024-01-16T08:22:57;1.40;99.90
19522;DHT22;9905;52.126;5.596;2024-01-16T08:25:25;1.30;99.90
19522;DHT22;9905;52.126;5.596;2024-01-16T08:27:51;1.30;99.90
19522;DHT22;9905;52.126;5.596;2024-01-16T08:30:18;1.40;99.90
19522;DHT22;9905;52.126;5.596;2024-01-16T08:32:45;1.30;99.90
19522;DHT22;9905;52.126;5.596;2024-01-16T08:35:12;1.30;99.90
19522;DHT22;9905;52.126;5.596;2024-01-16T08:37:39;1.30;99.90
19522;DHT22;9905;52.126;5.596;2024-01-16T08:40:06;1.30;99.90
19522;DHT22;9905;52.126;5.596;2024-01-16T08:42:35;1.30;99.90
19522;DHT22;9905;52.126;5.596;2024-01-16T08:45:01;1.20;99.90
19522;DHT22;9905;52.126;5.596;2024-01-16T08:47:29;1.20;99.90
19522;DHT22;9905;52.126;5.596;2024-01-16T08:49:56;1.10;99.90
19522;DHT22;9905;52.126;5.596;2024-01-16T08:52:23;1.10;99.90
19522;DHT22;9905;52.126;5.596;2024-01-16T08:54:50;1.20;99.90
19522;DHT22;9905;52.126;5.596;2024-01-16T08:57:17;1.20;99.90
19522;DHT22;9905;52.126;5.596;2024-01-16T08:59:45;1.20;99.90
19522;DHT22;9905;52.126;5.596;2024-01-16T09:02:12;1.20;99.90
19522;DHT22;9905;52.126;5.596;2024-01-16T09:04:38;1.20;99.90
19522;DHT22;9905;52.126;5.596;2024-01-16T09:07:05;1.20;99.90
19522;DHT22;9905;52.126;5.596;2024-01-16T09:09:32;1.30;99.90
19522;DHT22;9905;52.126;5.596;2024-01-16T09:11:59;1.30;99.90
19522;DHT22;9905;52.126;5.596;2024-01-16T09:14:25;1.30;99.90
19522;DHT22;9905;52.126;5.596;2024-01-16T09:16:53;1.30;99.90
19522;DHT22;9905;52.126;5.596;2024-01-16T09:19:20;1.30;99.90
19522;DHT22;9905;52.126;5.596;2024-01-16T09:21:47;1.30;99.90
19522;DHT22;9905;52.126;5.596;2024-01-16T09:24:14;1.30;99.90
19522;DHT22;9905;52.126;5.596;2024-01-16T09:26:40;1.30;99.90
19522;DHT22;9905;52.126;5.596;2024-01-16T09:29:08;1.30;99.90
19522;DHT22;9905;52.126;5.596;2024-01-16T09:31:35;1.30;99.90
19522;DHT22;9905;52.126;5.596;2024-01-16T09:34:04;1.30;99.90
19522;DHT22;9905;52.126;5.596;2024-01-16T09:36:30;1.30;99.90
19522;DHT22;9905;52.126;5.596;2024-01-16T09:38:57;1.40;99.90
19522;DHT22;9905;52.126;5.596;2024-01-16T09:41:24;1.40;99.90
19522;DHT22;9905;52.126;5.596;2024-01-16T09:43:51;1.50;99.90
19522;DHT22;9905;52.126;5.596;2024-01-16T09:46:20;1.50;99.90
19522;DHT22;9905;52.126;5.596;2024-01-16T09:48:51;1.50;99.90
19522;DHT22;9905;52.126;5.596;2024-01-16T09:51:20;1.60;99.90
19522;DHT22;9905;52.126;5.596;2024-01-16T09:53:47;1.70;99.90
19522;DHT22;9905;52.126;5.596;2024-01-16T09:56:15;1.80;99.90
19522;DHT22;9905;52.126;5.596;2024-01-16T09:58:43;1.90;99.90
19522;DHT22;9905;52.126;5.596;2024-01-16T10:01:11;1.90;99.90
19522;DHT22;9905;52.126;5.596;2024-01-16T10:03:38;1.90;99.90
19522;DHT22;9905;52.126;5.596;2024-01-16T10:06:07;1.80;99.90
19522;DHT22;9905;52.126;5.596;2024-01-16T10:08:35;1.80;99.90
19522;DHT22;9905;52.126;5.596;2024-01-16T10:11:03;1.80;99.90
19522;DHT22;9905;52.126;5.596;2024-01-16T10:13:31;1.70;99.90
19522;DHT22;9905;52.126;5.596;2024-01-16T10:15:58;1.80;99.90
19522;DHT22;9905;52.126;5.596;2024-01-16T10:18:26;1.80;99.90
19522;DHT22;9905;52.126;5.596;2024-01-16T10:20:53;1.80;99.90
19522;DHT22;9905;52.126;5.596;2024-01-16T10:23:24;1.80;99.90
19522;DHT22;9905;52.126;5.596;2024-01-16T10:26:08;1.80;99.90
19522;DHT22;9905;52.126;5.596;2024-01-16T10:28:36;1.80;99.90
19522;DHT22;9905;52.126;5.596;2024-01-16T10:31:03;1.70;99.90
19522;DHT22;9905;52.126;5.596;2024-01-16T10:33:30;1.80;99.90
19522;DHT22;9905;52.126;5.596;2024-01-16T10:36:11;1.80;99.90
19522;DHT22;9905;52.126;5.596;2024-01-16T10:38:38;1.80;99.90
19522;DHT22;9905;52.126;5.596;2024-01-16T10:41:08;1.80;99.90
19522;DHT22;9905;52.126;5.596;2024-01-16T10:43:35;1.80;99.90
19522;DHT22;9905;52.126;5.596;2024-01-16T10:46:12;1.80;99.90
19522;DHT22;9905;52.126;5.596;2024-01-16T10:48:41;1.90;99.90
19522;DHT22;9905;52.126;5.596;2024-01-16T10:51:10;1.90;99.90
19522;DHT22;9905;52.126;5.596;2024-01-16T10:53:39;2.00;99.90
19522;DHT22;9905;52.126;5.596;2024-01-16T10:56:10;2.00;99.90
19522;DHT22;9905;52.126;5.596;2024-01-16T10:58:40;2.10;99.90
19522;DHT22;9905;52.126;5.596;2024-01-16T11:01:10;2.10;99.90
19522;DHT22;9905;52.126;5.596;2024-01-16T11:03:40;2.20;99.90
19522;DHT22;9905;52.126;5.596;2024-01-16T11:06:10;2.20;99.90
19522;DHT22;9905;52.126;5.596;2024-01-16T11:08:39;2.20;99.90
19522;DHT22;9905;52.126;5.596;2024-01-16T11:11:07;2.20;99.90
19522;DHT22;9905;52.126;5.596;2024-01-16T11:13:36;2.30;99.90
19522;DHT22;9905;52.126;5.596;2024-01-16T11:16:03;2.30;99.90
19522;DHT22;9905;52.126;5.596;2024-01-16T11:18:31;2.30;99.90
19522;DHT22;9905;52.126;5.596;2024-01-16T11:20:59;2.40;99.90
19522;DHT22;9905;52.126;5.596;2024-01-16T11:23:26;2.30;99.90
19522;DHT22;9905;52.126;5.596;2024-01-16T11:25:53;2.30;99.90
19522;DHT22;9905;52.126;5.596;2024-01-16T11:28:20;2.40;99.90
19522;DHT22;9905;52.126;5.596;2024-01-16T11:30:48;2.40;99.90
19522;DHT22;9905;52.126;5.596;2024-01-16T11:33:43;2.50;99.90
19522;DHT22;9905;52.126;5.596;2024-01-16T11:36:43;2.50;99.90
19522;DHT22;9905;52.126;5.596;2024-01-16T11:39:17;2.60;99.90
19522;DHT22;9905;52.126;5.596;2024-01-16T11:41:51;2.60;99.90
19522;DHT22;9905;52.126;5.596;2024-01-16T11:44:39;2.60;99.90
19522;DHT22;9905;52.126;5.596;2024-01-16T11:47:08;2.70;99.90
19522;DHT22;9905;52.126;5.596;2024-01-16T11:49:36;2.70;99.90
19522;DHT22;9905;52.126;5.596;2024-01-16T11:52:03;2.70;99.90
19522;DHT22;9905;52.126;5.596;2024-01-16T11:54:31;2.70;99.90
19522;DHT22;9905;52.126;5.596;2024-01-16T11:57:34;2.80;99.90
19522;DHT22;9905;52.126;5.596;2024-01-16T12:00:04;2.80;99.90
19522;DHT22;9905;52.126;5.596;2024-01-16T12:02:55;2.90;99.90
19522;DHT22;9905;52.126;5.596;2024-01-16T12:05:22;2.90;99.90
19522;DHT22;9905;52.126;5.596;2024-01-16T12:07:50;3.00;99.90
19522;DHT22;9905;52.126;5.596;2024-01-16T12:10:19;3.00;99.90
19522;DHT22;9905;52.126;5.596;2024-01-16T12:12:47;3.10;99.90
19522;DHT22;9905;52.126;5.596;2024-01-16T12:15:15;3.20;99.90
19522;DHT22;9905;52.126;5.596;2024-01-16T12:18:02;3.20;99.90
19522;DHT22;9905;52.126;5.596;2024-01-16T12:20:30;3.20;99.90
19522;DHT22;9905;52.126;5.596;2024-01-16T12:22:58;3.20;99.90
19522;DHT22;9905;52.126;5.596;2024-01-16T12:25:27;3.20;99.90
19522;DHT22;9905;52.126;5.596;2024-01-16T12:27:55;3.20;99.90
19522;DHT22;9905;52.126;5.596;2024-01-16T12:30:24;3.10;99.90
19522;DHT22;9905;52.126;5.596;2024-01-16T12:32:51;3.00;99.90
19522;DHT22;9905;52.126;5.596;2024-01-16T12:35:23;3.00;99.90
19522;DHT22;9905;52.126;5.596;2024-01-16T12:38:00;2.90;99.90
19522;DHT22;9905;52.126;5.596;2024-01-16T12:40:27;2.90;99.90
19522;DHT22;9905;52.126;5.596;2024-01-16T12:42:55;2.80;99.90
19522;DHT22;9905;52.126;5.596;2024-01-16T12:45:22;2.70;99.90
19522;DHT22;9905;52.126;5.596;2024-01-16T12:47:51;2.80;99.90
19522;DHT22;9905;52.126;5.596;2024-01-16T12:50:20;2.80;99.90
19522;DHT22;9905;52.126;5.596;2024-01-16T12:52:49;2.80;99.90
19522;DHT22;9905;52.126;5.596;2024-01-16T12:55:16;2.80;99.90
19522;DHT22;9905;52.126;5.596;2024-01-16T12:57:44;2.90;99.90
19522;DHT22;9905;52.126;5.596;2024-01-16T13:00:21;2.90;99.90
19522;DHT22;9905;52.126;5.596;2024-01-16T13:02:50;3.00;99.90
19522;DHT22;9905;52.126;5.596;2024-01-16T13:05:18;3.00;99.90
19522;DHT22;9905;52.126;5.596;2024-01-16T13:07:45;3.00;99.90
19522;DHT22;9905;52.126;5.596;2024-01-16T13:10:13;3.10;99.90
19522;DHT22;9905;52.126;5.596;2024-01-16T13:12:43;3.20;99.90
19522;DHT22;9905;52.126;5.596;2024-01-16T13:15:11;3.20;99.90
19522;DHT22;9905;52.126;5.596;2024-01-16T13:17:42;3.20;99.90
19522;DHT22;9905;52.126;5.596;2024-01-16T13:20:10;3.20;99.90
19522;DHT22;9905;52.126;5.596;2024-01-16T13:22:38;3.20;99.90
19522;DHT22;9905;52.126;5.596;2024-01-16T13:25:05;3.20;99.90
19522;DHT22;9905;52.126;5.596;2024-01-16T13:27:34;3.10;99.90
19522;DHT22;9905;52.126;5.596;2024-01-16T13:30:00;3.10;99.90
19522;DHT22;9905;52.126;5.596;2024-01-16T13:32:27;3.10;99.90
19522;DHT22;9905;52.126;5.596;2024-01-16T13:34:54;3.10;99.90
19522;DHT22;9905;52.126;5.596;2024-01-16T13:37:21;3.10;99.90
19522;DHT22;9905;52.126;5.596;2024-01-16T13:39:48;3.10;99.90
19522;DHT22;9905;52.126;5.596;2024-01-16T13:42:15;3.00;99.90
19522;DHT22;9905;52.126;5.596;2024-01-16T13:44:46;3.00;99.90
19522;DHT22;9905;52.126;5.596;2024-01-16T13:47:15;2.90;99.90
19522;DHT22;9905;52.126;5.596;2024-01-16T13:49:44;2.80;99.90
19522;DHT22;9905;52.126;5.596;2024-01-16T13:52:11;2.80;99.90
19522;DHT22;9905;52.126;5.596;2024-01-16T13:54:38;2.80;99.90
19522;DHT22;9905;52.126;5.596;2024-01-16T13:57:06;2.90;99.90
19522;DHT22;9905;52.126;5.596;2024-01-16T13:59:33;2.90;99.90
19522;DHT22;9905;52.126;5.596;2024-01-16T14:02:01;3.00;99.90
19522;DHT22;9905;52.126;5.596;2024-01-16T14:04:28;3.10;99.90
19522;DHT22;9905;52.126;5.596;2024-01-16T14:06:55;3.10;99.90
19522;DHT22;9905;52.126;5.596;2024-01-16T14:09:22;3.10;99.90
19522;DHT22;9905;52.126;5.596;2024-01-16T14:11:49;3.10;99.90
19522;DHT22;9905;52.126;5.596;2024-01-16T14:14:16;3.00;99.90
19522;DHT22;9905;52.126;5.596;2024-01-16T14:16:43;3.00;99.90
19522;DHT22;9905;52.126;5.596;2024-01-16T14:19:11;3.00;99.90
19522;DHT22;9905;52.126;5.596;2024-01-16T14:21:38;3.00;99.90
19522;DHT22;9905;52.126;5.596;2024-01-16T14:24:05;3.00;99.90
19522;DHT22;9905;52.126;5.596;2024-01-16T14:26:32;3.00;99.90
19522;DHT22;9905;52.126;5.596;2024-01-16T14:28:59;3.00;99.90
19522;DHT22;9905;52.126;5.596;2024-01-16T14:31:27;3.00;99.90
19522;DHT22;9905;52.126;5.596;2024-01-16T14:33:53;3.00;99.90
19522;DHT22;9905;52.126;5.596;2024-01-16T14:36:22;3.00;99.90
19522;DHT22;9905;52.126;5.596;2024-01-16T14:38:49;3.00;99.90
19522;DHT22;9905;52.126;5.596;2024-01-16T14:41:17;2.90;99.90
19522;DHT22;9905;52.126;5.596;2024-01-16T14:43:43;2.80;99.90
19522;DHT22;9905;52.126;5.596;2024-01-16T14:46:11;2.80;99.90
19522;DHT22;9905;52.126;5.596;2024-01-16T14:48:38;2.70;99.90
19522;DHT22;9905;52.126;5.596;2024-01-16T14:51:05;2.60;99.90
19522;DHT22;9905;52.126;5.596;2024-01-16T14:53:33;2.50;99.90
19522;DHT22;9905;52.126;5.596;2024-01-16T14:56:00;2.50;99.90
19522;DHT22;9905;52.126;5.596;2024-01-16T14:58:26;2.50;99.90
19522;DHT22;9905;52.126;5.596;2024-01-16T15:00:53;2.50;99.90
19522;DHT22;9905;52.126;5.596;2024-01-16T15:03:21;2.50;99.90
19522;DHT22;9905;52.126;5.596;2024-01-16T15:05:49;2.40;99.90
19522;DHT22;9905;52.126;5.596;2024-01-16T15:08:17;2.40;99.90
19522;DHT22;9905;52.126;5.596;2024-01-16T15:10:46;2.30;99.90
19522;DHT22;9905;52.126;5.596;2024-01-16T15:13:13;2.30;99.90
19522;DHT22;9905;52.126;5.596;2024-01-16T15:15:40;2.20;99.90
19522;DHT22;9905;52.126;5.596;2024-01-16T15:18:07;2.20;99.90
19522;DHT22;9905;52.126;5.596;2024-01-16T15:20:33;2.20;99.90
19522;DHT22;9905;52.126;5.596;2024-01-16T15:23:00;2.10;99.90
19522;DHT22;9905;52.126;5.596;2024-01-16T15:25:29;2.00;99.90
19522;DHT22;9905;52.126;5.596;2024-01-16T15:27:57;2.00;99.90
19522;DHT22;9905;52.126;5.596;2024-01-16T15:30:24;2.00;99.90
19522;DHT22;9905;52.126;5.596;2024-01-16T15:32:57;2.00;99.90
19522;DHT22;9905;52.126;5.596;2024-01-16T15:35:23;1.90;99.90
19522;DHT22;9905;52.126;5.596;2024-01-16T15:37:50;1.80;99.90
19522;DHT22;9905;52.126;5.596;2024-01-16T15:40:17;1.80;99.90
19522;DHT22;9905;52.126;5.596;2024-01-16T15:42:44;1.80;99.90
19522;DHT22;9905;52.126;5.596;2024-01-16T15:45:12;1.70;99.90
19522;DHT22;9905;52.126;5.596;2024-01-16T15:47:40;1.70;99.90
19522;DHT22;9905;52.126;5.596;2024-01-16T15:50:08;1.70;99.90
19522;DHT22;9905;52.126;5.596;2024-01-16T15:52:36;1.70;99.90
19522;DHT22;9905;52.126;5.596;2024-01-16T15:55:03;1.70;99.90
19522;DHT22;9905;52.126;5.596;2024-01-16T15:57:30;1.70;99.90
19522;DHT22;9905;52.126;5.596;2024-01-16T15:59:57;1.60;99.90
19522;DHT22;9905;52.126;5.596;2024-01-16T16:02:25;1.60;99.90
19522;DHT22;9905;52.126;5.596;2024-01-16T16:04:52;1.50;99.90
19522;DHT22;9905;52.126;5.596;2024-01-16T16:07:19;1.50;99.90